Time;durP1;ratioP1;P1;durP2;ratioP2;P2;SDS_P1;SDS_P2;PMS_P1;PMS_P2;Temp;Humidity;BMP_temperature;BMP_pressure;BME280_temperature;BME280_humidity;BME280_pressure;Samples;Min_cycle;Max_cycle;Signal;HPM_P1;HPM_P2
2021/08/10 00:01:56;;;;;;;16.38;10.90;;;14.70;99.90;;;;;;5088433;28;20524;-58
2021/08/10 00:04:22;;;;;;;12.13;9.90;;;14.70;99.90;;;;;;5089314;28;20047;-56
2021/08/10 00:06:49;;;;;;;13.07;10.15;;;14.70;99.90;;;;;;5089381;28;20076;-57
2021/08/10 00:09:17;;;;;;;14.55;10.70;;;14.70;99.90;;;;;;5087142;28;20036;-57
2021/08/10 00:11:43;;;;;;;15.02;11.02;;;14.70;99.90;;;;;;5088745;28;20052;-58
2021/08/10 00:14:13;;;;;;;13.45;10.60;;;14.70;99.90;;;;;;5089474;28;20436;-57
2021/08/10 00:16:39;;;;;;;16.85;12.18;;;14.70;99.90;;;;;;5055837;28;20131;-58
2021/08/10 00:19:06;;;;;;;15.45;11.55;;;14.60;99.90;;;;;;5087590;28;20066;-57
2021/08/10 00:21:32;;;;;;;17.15;11.18;;;14.70;99.90;;;;;;5071757;28;20048;-57
2021/08/10 00:23:59;;;;;;;13.95;11.38;;;14.60;99.90;;;;;;5088981;28;20102;-57
2021/08/10 00:26:25;;;;;;;15.63;12.18;;;14.70;99.90;;;;;;5088668;28;20144;-58
2021/08/10 00:28:51;;;;;;;16.48;10.80;;;14.70;99.90;;;;;;5088855;28;20052;-57
2021/08/10 00:31:19;;;;;;;16.85;11.88;;;14.70;99.90;;;;;;5069911;28;20051;-58
2021/08/10 00:33:45;;;;;;;15.75;11.93;;;14.70;99.90;;;;;;5089261;28;20059;-58
2021/08/10 00:36:12;;;;;;;15.35;11.95;;;14.70;99.90;;;;;;5070847;28;20059;-59
2021/08/10 00:38:41;;;;;;;17.70;11.88;;;14.70;99.90;;;;;;5071494;28;20051;-57
2021/08/10 00:41:08;;;;;;;16.73;12.73;;;14.70;99.90;;;;;;5061583;28;20137;-58
2021/08/10 00:43:42;;;;;;;15.77;12.43;;;14.70;99.90;;;;;;5068175;28;20052;-57
2021/08/10 00:46:19;;;;;;;14.85;12.38;;;14.70;99.90;;;;;;5076053;28;20039;-58
2021/08/10 00:48:49;;;;;;;17.23;11.57;;;14.70;99.90;;;;;;5071061;28;20162;-58
2021/08/10 00:51:19;;;;;;;16.75;12.65;;;14.60;99.90;;;;;;5069264;28;20055;-57
2021/08/10 00:53:50;;;;;;;21.70;13.20;;;14.70;99.90;;;;;;5068230;28;20052;-58
2021/08/10 00:56:19;;;;;;;17.70;12.32;;;14.70;99.90;;;;;;5068947;28;20079;-58
2021/08/10 00:58:48;;;;;;;17.77;12.70;;;14.60;99.90;;;;;;5068726;28;20040;-58
2021/08/10 01:01:15;;;;;;;18.33;12.88;;;14.60;99.90;;;;;;5073817;28;20052;-57
2021/08/10 01:03:43;;;;;;;15.68;12.80;;;14.60;99.90;;;;;;5065851;28;20050;-57
2021/08/10 01:06:20;;;;;;;16.10;12.43;;;14.60;99.90;;;;;;5070116;28;20083;-57
2021/08/10 01:09:03;;;;;;;15.82;13.02;;;14.60;99.90;;;;;;5069811;28;20067;-56
2021/08/10 01:11:48;;;;;;;16.63;12.77;;;14.60;99.90;;;;;;5060355;28;20063;-58
2021/08/10 01:14:25;;;;;;;18.77;13.38;;;14.60;99.90;;;;;;5064836;28;20056;-58
2021/08/10 01:17:07;;;;;;;16.55;12.23;;;14.60;99.90;;;;;;5052025;28;20071;-59
2021/08/10 01:19:47;;;;;;;16.20;13.00;;;14.50;99.90;;;;;;5085865;28;20424;-57
2021/08/10 01:22:21;;;;;;;17.27;12.95;;;14.60;99.90;;;;;;5056814;28;20052;-59
2021/08/10 01:25:04;;;;;;;17.10;13.45;;;14.50;99.90;;;;;;5067727;28;20051;-58
2021/08/10 01:27:52;;;;;;;19.27;13.57;;;14.50;99.90;;;;;;5067296;28;20087;-56
2021/08/10 01:30:34;;;;;;;19.52;13.48;;;14.50;99.90;;;;;;5068274;28;20052;-57
2021/08/10 01:33:04;;;;;;;17.95;12.88;;;14.50;99.90;;;;;;5068271;28;20048;-56
2021/08/10 01:35:31;;;;;;;15.10;12.65;;;14.50;99.90;;;;;;5083779;28;20044;-56
2021/08/10 01:38:01;;;;;;;17.05;12.15;;;14.50;99.90;;;;;;5067996;28;20048;-55
2021/08/10 01:40:31;;;;;;;17.10;11.73;;;14.50;99.90;;;;;;5034223;28;20051;-56
2021/08/10 01:43:02;;;;;;;14.90;12.32;;;14.50;99.90;;;;;;5051016;28;20580;-55
2021/08/10 01:45:28;;;;;;;17.98;12.75;;;14.50;99.90;;;;;;5067041;28;20052;-55
2021/08/10 01:48:03;;;;;;;16.15;12.13;;;14.50;99.90;;;;;;5070965;28;20503;-57
2021/08/10 01:50:35;;;;;;;16.08;12.07;;;14.40;99.90;;;;;;5074302;28;20484;-57
2021/08/10 01:53:13;;;;;;;14.80;12.95;;;14.50;99.90;;;;;;5070137;28;20040;-56
2021/08/10 01:55:41;;;;;;;16.17;12.75;;;14.50;99.90;;;;;;5069090;28;20105;-57
2021/08/10 01:58:19;;;;;;;15.40;11.85;;;14.40;99.90;;;;;;5064287;28;20083;-57
2021/08/10 02:00:49;;;;;;;14.32;11.43;;;14.40;99.90;;;;;;5069460;28;20047;-57
2021/08/10 02:03:17;;;;;;;17.27;12.18;;;14.40;99.90;;;;;;5050254;28;20060;-57
2021/08/10 02:05:52;;;;;;;15.48;11.65;;;14.40;99.90;;;;;;5068197;28;20079;-57
2021/08/10 02:08:28;;;;;;;15.75;12.50;;;14.40;99.90;;;;;;5052127;28;20079;-56
2021/08/10 02:10:59;;;;;;;13.27;11.45;;;14.40;99.90;;;;;;5064711;28;20098;-56
2021/08/10 02:13:28;;;;;;;16.27;12.20;;;14.30;99.90;;;;;;5070289;28;20446;-57
2021/08/10 02:15:57;;;;;;;15.57;11.88;;;14.30;99.90;;;;;;5070212;28;20052;-55
2021/08/10 02:18:25;;;;;;;15.77;12.43;;;14.30;99.90;;;;;;5051925;28;20051;-57
2021/08/10 02:21:12;;;;;;;16.70;12.55;;;14.30;99.90;;;;;;5070469;28;20117;-56
2021/08/10 02:23:46;;;;;;;14.70;11.77;;;14.30;99.90;;;;;;5065031;28;20054;-55
2021/08/10 02:26:14;;;;;;;17.27;12.67;;;14.20;99.90;;;;;;5059393;28;20058;-56
2021/08/10 02:28:44;;;;;;;15.65;11.85;;;14.20;99.90;;;;;;5067814;28;20480;-57
2021/08/10 02:31:14;;;;;;;14.13;11.52;;;14.30;99.90;;;;;;5068857;28;20075;-54
2021/08/10 02:33:41;;;;;;;17.60;12.55;;;14.20;99.90;;;;;;5065271;28;20048;-57
2021/08/10 02:36:19;;;;;;;16.02;11.95;;;14.20;99.90;;;;;;5052546;28;20233;-57
2021/08/10 02:38:49;;;;;;;16.05;11.88;;;14.20;99.90;;;;;;5076317;28;20089;-56
2021/08/10 02:41:18;;;;;;;17.85;12.38;;;14.20;99.90;;;;;;5053874;28;20048;-57
2021/08/10 02:43:53;;;;;;;16.70;12.48;;;14.30;99.90;;;;;;5060451;28;20049;-56
2021/08/10 02:46:20;;;;;;;17.15;12.70;;;14.30;99.90;;;;;;5073251;28;20079;-56
2021/08/10 02:48:49;;;;;;;15.40;12.73;;;14.30;99.90;;;;;;5072241;28;20048;-56
2021/08/10 02:51:15;;;;;;;18.98;13.43;;;14.30;99.90;;;;;;5089474;28;20870;-56
2021/08/10 02:53:41;;;;;;;17.70;13.18;;;14.20;99.90;;;;;;5065932;28;20045;-56
2021/08/10 02:56:14;;;;;;;15.48;12.80;;;14.20;99.90;;;;;;5089893;28;20047;-56
2021/08/10 02:58:50;;;;;;;17.88;13.18;;;14.30;99.90;;;;;;5070808;28;20131;-57
2021/08/10 03:01:19;;;;;;;16.23;12.38;;;14.20;99.90;;;;;;5070221;28;20055;-57
2021/08/10 03:03:47;;;;;;;16.70;12.23;;;14.20;99.90;;;;;;5056019;28;20080;-56
2021/08/10 03:06:16;;;;;;;16.85;12.32;;;14.20;99.90;;;;;;5073155;28;20079;-57
2021/08/10 03:08:51;;;;;;;16.88;12.73;;;14.20;99.90;;;;;;5056657;28;20068;-56
2021/08/10 03:11:19;;;;;;;19.88;13.60;;;14.20;99.90;;;;;;5068184;28;20059;-57
2021/08/10 03:13:48;;;;;;;20.35;14.40;;;14.20;99.90;;;;;;5077858;28;20055;-58
2021/08/10 03:16:16;;;;;;;20.23;15.40;;;14.20;99.90;;;;;;5072294;28;20498;-58
2021/08/10 03:18:48;;;;;;;17.05;13.13;;;14.20;99.90;;;;;;5070209;28;20059;-57
2021/08/10 03:21:15;;;;;;;19.90;14.32;;;14.30;99.90;;;;;;5072414;28;20048;-57
2021/08/10 03:23:43;;;;;;;23.00;15.77;;;14.30;99.90;;;;;;5079544;28;20424;-58
2021/08/10 03:26:13;;;;;;;20.90;15.18;;;14.40;99.90;;;;;;5072167;28;20055;-56
2021/08/10 03:28:41;;;;;;;18.95;15.40;;;14.40;99.90;;;;;;5088556;28;20066;-57
2021/08/10 03:31:13;;;;;;;23.17;16.05;;;14.50;99.90;;;;;;5066844;28;20244;-57
2021/08/10 03:33:41;;;;;;;17.17;14.02;;;14.50;99.90;;;;;;5071152;28;20180;-57
2021/08/10 03:36:11;;;;;;;19.35;13.77;;;14.50;99.90;;;;;;5071288;28;20050;-55
2021/08/10 03:38:43;;;;;;;15.30;13.02;;;14.50;99.90;;;;;;5060191;28;20059;-56
2021/08/10 03:41:10;;;;;;;15.95;13.02;;;14.60;99.90;;;;;;5071812;28;20047;-57
2021/08/10 03:43:37;;;;;;;12.90;11.48;;;14.60;99.90;;;;;;5072865;28;20055;-57
2021/08/10 03:46:09;;;;;;;17.30;10.95;;;14.60;99.90;;;;;;5093542;28;20047;-56
2021/08/10 03:48:41;;;;;;;14.40;10.07;;;14.70;99.90;;;;;;5087747;28;20055;-58
2021/08/10 03:51:09;;;;;;;13.80;9.82;;;14.80;99.90;;;;;;5087989;28;20132;-58
2021/08/10 03:53:36;;;;;;;14.07;10.43;;;14.80;99.90;;;;;;5073454;28;20093;-58
2021/08/10 03:56:03;;;;;;;15.25;9.98;;;14.80;99.90;;;;;;5071718;28;20048;-57
2021/08/10 03:58:38;;;;;;;13.70;10.93;;;14.80;99.90;;;;;;5068017;28;20075;-55
2021/08/10 04:01:06;;;;;;;12.35;11.05;;;14.80;99.90;;;;;;5067481;28;20730;-57
2021/08/10 04:03:34;;;;;;;17.65;11.48;;;14.80;99.90;;;;;;5057084;28;20372;-58
2021/08/10 04:06:05;;;;;;;16.80;11.65;;;14.80;99.90;;;;;;5090241;28;20051;-58
2021/08/10 04:08:32;;;;;;;13.75;11.25;;;14.70;99.90;;;;;;5071271;28;20062;-55
2021/08/10 04:10:58;;;;;;;21.58;13.02;;;14.70;99.90;;;;;;5071385;28;20054;-57
2021/08/10 04:13:29;;;;;;;16.42;12.75;;;14.80;99.90;;;;;;5076838;28;20036;-56
2021/08/10 04:15:58;;;;;;;17.63;12.60;;;14.80;99.90;;;;;;5057353;28;20080;-57
2021/08/10 04:18:27;;;;;;;16.98;12.85;;;14.70;99.90;;;;;;5068025;28;20055;-56
2021/08/10 04:20:53;;;;;;;14.60;13.07;;;14.70;99.90;;;;;;5089831;28;20048;-56
2021/08/10 04:23:22;;;;;;;16.73;13.60;;;14.70;99.90;;;;;;5074936;28;20462;-56
2021/08/10 04:25:48;;;;;;;15.52;12.93;;;14.70;99.90;;;;;;5089574;28;20522;-56
2021/08/10 04:28:15;;;;;;;14.90;13.30;;;14.70;99.90;;;;;;5069643;28;20079;-58
2021/08/10 04:30:45;;;;;;;20.13;13.30;;;14.70;99.90;;;;;;5054800;28;20117;-57
2021/08/10 04:33:14;;;;;;;19.98;14.55;;;14.70;99.90;;;;;;5071399;28;20044;-56
2021/08/10 04:35:41;;;;;;;19.98;13.70;;;14.70;99.90;;;;;;5070527;28;20055;-58
2021/08/10 04:38:09;;;;;;;17.50;13.65;;;14.70;99.90;;;;;;5069280;28;20139;-57
2021/08/10 04:40:38;;;;;;;17.98;13.98;;;14.70;99.90;;;;;;5070757;28;20396;-58
2021/08/10 04:43:10;;;;;;;19.27;14.48;;;14.60;99.90;;;;;;5086204;28;20052;-59
2021/08/10 04:45:40;;;;;;;20.77;14.45;;;14.60;99.90;;;;;;5050841;28;20048;-58
2021/08/10 04:48:08;;;;;;;19.02;14.90;;;14.60;99.90;;;;;;5047763;28;20633;-58
2021/08/10 04:50:35;;;;;;;17.52;14.52;;;14.60;99.90;;;;;;5065839;28;20052;-58
2021/08/10 04:53:02;;;;;;;18.15;14.63;;;14.60;99.90;;;;;;5074655;28;20056;-58
2021/08/10 04:55:31;;;;;;;17.48;13.48;;;14.70;99.90;;;;;;5070497;28;20055;-58
2021/08/10 04:58:00;;;;;;;21.00;14.77;;;14.70;99.90;;;;;;5087174;28;20105;-58
2021/08/10 05:00:31;;;;;;;17.52;14.20;;;14.70;99.90;;;;;;5067243;28;20043;-58
2021/08/10 05:02:57;;;;;;;14.38;12.85;;;14.70;99.90;;;;;;5065861;28;20078;-58
2021/08/10 05:05:26;;;;;;;19.50;14.05;;;14.70;99.90;;;;;;5084063;28;20440;-58
2021/08/10 05:07:55;;;;;;;19.98;13.15;;;14.80;99.90;;;;;;5045465;28;20040;-57
2021/08/10 05:10:21;;;;;;;17.88;13.40;;;14.80;99.90;;;;;;5077332;28;20698;-57
2021/08/10 05:12:53;;;;;;;15.77;13.20;;;14.80;99.90;;;;;;5055465;28;20080;-54
2021/08/10 05:15:22;;;;;;;19.88;13.73;;;14.80;99.90;;;;;;5053488;28;20051;-51
2021/08/10 05:17:53;;;;;;;17.70;13.25;;;14.80;99.90;;;;;;5072864;28;20060;-48
2021/08/10 05:20:24;;;;;;;16.88;12.88;;;14.80;99.90;;;;;;5072344;28;20495;-54
2021/08/10 05:22:53;;;;;;;17.23;12.90;;;14.90;99.90;;;;;;5086577;28;20048;-53
2021/08/10 05:25:21;;;;;;;26.00;18.95;;;14.90;99.90;;;;;;5069364;28;20051;-52
2021/08/10 05:27:49;;;;;;;23.80;20.90;;;14.90;99.90;;;;;;5087744;28;20446;-57
2021/08/10 05:30:16;;;;;;;28.17;22.17;;;14.80;99.90;;;;;;5068169;28;20052;-57
2021/08/10 05:32:45;;;;;;;20.92;15.60;;;14.90;99.90;;;;;;5069750;28;20492;-55
2021/08/10 05:35:11;;;;;;;49.83;44.17;;;14.90;99.90;;;;;;5057286;28;20448;-52
2021/08/10 05:37:39;;;;;;;24.35;20.30;;;14.90;99.90;;;;;;5067179;28;20050;-51
2021/08/10 05:40:11;;;;;;;28.60;21.73;;;14.90;99.90;;;;;;5090386;28;20040;-51
2021/08/10 05:42:39;;;;;;;28.45;23.80;;;14.90;99.90;;;;;;5087607;28;20055;-53
2021/08/10 05:45:09;;;;;;;;;;;14.90;99.90;;;;;;5069343;28;20143;-53
2021/08/10 05:47:38;;;;;;;18.50;14.65;;;14.90;99.90;;;;;;5056507;28;19928;-52
2021/08/10 05:50:06;;;;;;;19.23;14.60;;;14.90;99.90;;;;;;5067013;28;20103;-49
2021/08/10 05:52:38;;;;;;;46.22;37.15;;;14.90;99.90;;;;;;5059070;28;20043;-57
2021/08/10 05:55:04;;;;;;;47.67;42.40;;;14.90;99.90;;;;;;5068559;28;20056;-56
2021/08/10 05:57:33;;;;;;;27.52;22.88;;;14.90;99.90;;;;;;5087610;28;20044;-57
2021/08/10 06:00:00;;;;;;;20.88;17.27;;;15.00;99.90;;;;;;5069573;28;20649;-60
2021/08/10 06:02:27;;;;;;;22.17;16.80;;;15.10;99.90;;;;;;5076038;28;20054;-56
2021/08/10 06:04:54;;;;;;;23.52;16.65;;;15.20;99.90;;;;;;5063213;28;20054;-50
2021/08/10 06:07:26;;;;;;;25.90;21.83;;;15.20;99.90;;;;;;5068611;28;20102;-49
2021/08/10 06:09:52;;;;;;;21.45;16.85;;;15.40;99.90;;;;;;5048561;28;20062;-50
2021/08/10 06:12:18;;;;;;;23.35;20.77;;;15.50;99.90;;;;;;5064729;28;20072;-49
2021/08/10 06:14:48;;;;;;;19.67;17.55;;;15.60;99.90;;;;;;5069473;28;20077;-47
2021/08/10 06:17:14;;;;;;;18.15;14.65;;;15.60;99.90;;;;;;5084783;28;20050;-56
2021/08/10 06:19:43;;;;;;;25.27;22.75;;;15.70;99.90;;;;;;5087459;28;20559;-57
2021/08/10 06:22:11;;;;;;;33.03;29.63;;;15.60;99.90;;;;;;5066375;28;20048;-58
2021/08/10 06:24:40;;;;;;;19.85;15.93;;;15.60;99.90;;;;;;5053168;28;20052;-59
2021/08/10 06:27:06;;;;;;;21.42;19.20;;;15.60;99.90;;;;;;5076610;28;20048;-58
2021/08/10 06:29:35;;;;;;;22.40;17.60;;;15.60;99.90;;;;;;5070293;28;20036;-57
2021/08/10 06:32:06;;;;;;;17.70;14.77;;;15.50;99.90;;;;;;5072155;28;20496;-58
2021/08/10 06:34:35;;;;;;;15.45;12.77;;;15.60;99.90;;;;;;5069315;28;20563;-58
2021/08/10 06:37:03;;;;;;;14.93;13.32;;;15.60;99.90;;;;;;5074778;28;20488;-58
2021/08/10 06:39:36;;;;;;;17.25;13.13;;;15.50;99.90;;;;;;5077295;28;20048;-58
2021/08/10 06:42:03;;;;;;;15.50;12.40;;;15.50;99.90;;;;;;5069686;28;20048;-58
2021/08/10 06:44:34;;;;;;;18.80;15.20;;;15.70;99.90;;;;;;5071048;28;20043;-57
2021/08/10 06:47:04;;;;;;;40.38;35.92;;;16.00;99.90;;;;;;5068061;28;20042;-59
2021/08/10 06:49:32;;;;;;;17.80;15.97;;;16.40;99.90;;;;;;5070895;28;20044;-59
2021/08/10 06:52:00;;;;;;;15.80;13.75;;;17.00;99.90;;;;;;5066244;28;20036;-59
2021/08/10 06:54:26;;;;;;;10.88;8.30;;;17.30;99.90;;;;;;5067917;28;20048;-58
2021/08/10 06:56:56;;;;;;;17.08;13.60;;;17.20;99.90;;;;;;5068117;28;20044;-58
2021/08/10 06:59:28;;;;;;;10.10;7.85;;;17.30;99.90;;;;;;5068395;28;20372;-59
2021/08/10 07:01:56;;;;;;;13.50;9.52;;;17.10;99.90;;;;;;5047179;28;20518;-58
2021/08/10 07:04:23;;;;;;;9.15;7.13;;;16.90;99.90;;;;;;5074634;28;20091;-59
2021/08/10 07:06:49;;;;;;;10.05;7.13;;;16.90;99.90;;;;;;5094070;28;20419;-59
2021/08/10 07:09:18;;;;;;;11.57;9.05;;;16.80;99.90;;;;;;5086777;28;20059;-59
2021/08/10 07:11:48;;;;;;;10.50;9.40;;;16.70;99.90;;;;;;5063136;28;20052;-59
2021/08/10 07:14:15;;;;;;;10.00;8.02;;;16.60;99.90;;;;;;5067287;28;20104;-60
2021/08/10 07:16:45;;;;;;;11.68;8.60;;;16.60;99.90;;;;;;5017136;28;20056;-60
2021/08/10 07:19:14;;;;;;;9.40;8.45;;;16.60;99.90;;;;;;5079663;28;20048;-60
2021/08/10 07:21:43;;;;;;;14.13;12.65;;;16.60;99.90;;;;;;5070715;28;20044;-58
2021/08/10 07:24:19;;;;;;;13.55;11.55;;;16.70;99.90;;;;;;5074648;28;20043;-60
2021/08/10 07:26:46;;;;;;;13.85;12.55;;;16.60;99.90;;;;;;5072775;28;20048;-60
2021/08/10 07:29:12;;;;;;;15.57;14.07;;;17.10;99.90;;;;;;5090589;28;20048;-60
2021/08/10 07:31:39;;;;;;;19.13;16.00;;;17.30;99.90;;;;;;5079410;28;20480;-59
2021/08/10 07:34:09;;;;;;;21.55;17.30;;;17.20;99.90;;;;;;5080097;28;20546;-59
2021/08/10 07:36:38;;;;;;;19.40;17.60;;;17.20;99.90;;;;;;5072810;28;20048;-58
2021/08/10 07:39:05;;;;;;;20.63;18.45;;;17.20;99.90;;;;;;5075583;28;20937;-59
2021/08/10 07:41:32;;;;;;;21.65;19.40;;;17.20;99.90;;;;;;5095637;28;20311;-60
2021/08/10 07:44:03;;;;;;;23.38;20.58;;;17.20;99.90;;;;;;5072876;28;20491;-59
2021/08/10 07:46:33;;;;;;;25.52;20.60;;;17.20;99.90;;;;;;5068865;28;20106;-61
2021/08/10 07:49:00;;;;;;;23.35;20.13;;;17.20;99.90;;;;;;5056258;28;20059;-62
2021/08/10 07:51:27;;;;;;;23.92;21.63;;;17.20;99.90;;;;;;5090653;28;20135;-62
2021/08/10 07:53:53;;;;;;;22.65;20.33;;;17.10;99.90;;;;;;5094921;28;20056;-62
2021/08/10 07:56:19;;;;;;;23.52;20.98;;;17.40;99.90;;;;;;5078085;28;20048;-62
2021/08/10 07:58:45;;;;;;;23.70;19.30;;;17.90;99.90;;;;;;5070991;28;20143;-62
2021/08/10 08:01:12;;;;;;;24.35;19.90;;;17.90;99.90;;;;;;5050457;28;20080;-61
2021/08/10 08:03:38;;;;;;;23.75;19.65;;;17.90;99.90;;;;;;5070745;28;20052;-62
2021/08/10 08:06:07;;;;;;;20.80;18.75;;;17.90;99.90;;;;;;5089075;28;20534;-62
2021/08/10 08:08:40;;;;;;;24.63;20.27;;;17.80;99.90;;;;;;5071954;28;20086;-62
2021/08/10 08:11:10;;;;;;;26.95;20.05;;;17.70;99.90;;;;;;5071575;28;20055;-61
2021/08/10 08:13:36;;;;;;;24.38;20.10;;;17.60;99.90;;;;;;5071796;28;20040;-62
2021/08/10 08:16:03;;;;;;;22.05;19.38;;;17.70;99.90;;;;;;5089892;28;20056;-61
2021/08/10 08:18:29;;;;;;;24.33;19.00;;;17.70;99.90;;;;;;5071231;28;20055;-62
2021/08/10 08:20:55;;;;;;;20.50;17.02;;;17.60;99.90;;;;;;5082995;28;20083;-60
2021/08/10 08:23:27;;;;;;;22.52;18.52;;;17.60;99.90;;;;;;5077910;28;20412;-62
2021/08/10 08:26:05;;;;;;;19.75;16.35;;;17.80;99.90;;;;;;5072751;28;20066;-63
2021/08/10 08:28:33;;;;;;;18.52;15.77;;;18.20;99.90;;;;;;5070843;28;20048;-62
2021/08/10 08:31:01;;;;;;;17.77;14.20;;;18.40;99.90;;;;;;5049790;28;20056;-61
2021/08/10 08:33:32;;;;;;;20.55;15.70;;;18.40;99.90;;;;;;5050578;28;20067;-61
2021/08/10 08:36:02;;;;;;;19.20;13.98;;;18.20;99.90;;;;;;5074901;28;20466;-63
2021/08/10 08:38:28;;;;;;;16.95;13.02;;;18.20;99.90;;;;;;5088524;28;20449;-62
2021/08/10 08:40:55;;;;;;;17.27;12.68;;;18.20;99.90;;;;;;5071362;28;20512;-64
2021/08/10 08:43:23;;;;;;;18.75;11.63;;;18.50;99.90;;;;;;5073597;28;20135;-62
2021/08/10 08:45:52;;;;;;;17.95;12.23;;;18.70;99.90;;;;;;5071795;28;20051;-63
2021/08/10 08:48:24;;;;;;;15.35;11.32;;;19.10;99.90;;;;;;5072949;28;20442;-62
2021/08/10 08:50:51;;;;;;;16.65;10.77;;;19.50;99.90;;;;;;5070604;28;20048;-62
2021/08/10 08:53:19;;;;;;;15.35;9.68;;;20.20;99.90;;;;;;5070149;28;20052;-63
2021/08/10 08:55:47;;;;;;;13.88;8.95;;;20.90;99.90;;;;;;5089419;28;20067;-60
2021/08/10 08:58:16;;;;;;;14.98;8.25;;;21.00;99.90;;;;;;5071056;28;20048;-62
2021/08/10 09:00:43;;;;;;;15.55;8.00;;;20.80;99.90;;;;;;5071372;28;20120;-63
2021/08/10 09:03:09;;;;;;;13.48;7.55;;;20.70;99.90;;;;;;5094447;28;20500;-61
2021/08/10 09:05:39;;;;;;;11.23;7.93;;;20.50;99.90;;;;;;5070477;28;20097;-61
2021/08/10 09:08:35;;;;;;;13.48;7.63;;;20.30;99.90;;;;;;5068191;28;20093;-60
2021/08/10 09:11:15;;;;;;;11.23;7.63;;;20.00;99.90;;;;;;5061213;28;20083;-60
2021/08/10 09:14:03;;;;;;;10.85;7.25;;;20.00;99.90;;;;;;5068226;28;20052;-62
2021/08/10 09:16:36;;;;;;;11.60;7.53;;;20.70;99.90;;;;;;5051815;28;20164;-61
2021/08/10 09:19:05;;;;;;;10.65;6.40;;;20.60;99.90;;;;;;5067082;28;20102;-61
2021/08/10 09:21:33;;;;;;;12.27;6.90;;;20.60;99.90;;;;;;5050668;28;20053;-61
2021/08/10 09:24:12;;;;;;;11.52;7.13;;;20.50;99.90;;;;;;5050331;28;20448;-60
2021/08/10 09:26:43;;;;;;;10.63;7.15;;;20.40;99.90;;;;;;5070190;28;20048;-60
2021/08/10 09:29:20;;;;;;;11.73;6.63;;;20.60;99.90;;;;;;5066096;28;20056;-58
2021/08/10 09:31:53;;;;;;;10.38;6.75;;;20.60;99.90;;;;;;5066828;28;20049;-61
2021/08/10 09:34:25;;;;;;;10.77;6.80;;;21.00;99.90;;;;;;5066641;28;20080;-61
2021/08/10 09:36:54;;;;;;;13.40;6.88;;;21.50;99.90;;;;;;5068436;28;20055;-60
2021/08/10 09:39:31;;;;;;;10.10;5.65;;;21.70;99.90;;;;;;5063848;28;20040;-60
2021/08/10 09:42:08;;;;;;;10.05;6.10;;;22.10;99.90;;;;;;5038052;28;20092;-60
2021/08/10 09:45:04;;;;;;;11.48;6.72;;;22.70;99.90;;;;;;5062649;28;20048;-57
2021/08/10 09:47:39;;;;;;;11.60;9.43;;;22.80;99.90;;;;;;5087140;28;20052;-57
2021/08/10 09:50:26;;;;;;;11.63;6.57;;;22.60;99.90;;;;;;5073782;28;20126;-60
2021/08/10 09:52:55;;;;;;;10.38;8.32;;;22.10;99.90;;;;;;5074581;28;20416;-61
2021/08/10 09:55:24;;;;;;;12.30;7.68;;;22.10;99.90;;;;;;5070595;28;20133;-60
2021/08/10 09:58:04;;;;;;;12.57;7.80;;;22.00;99.90;;;;;;5083630;28;20044;-58
2021/08/10 10:00:42;;;;;;;12.48;6.13;;;21.60;99.90;;;;;;5068187;28;20052;-59
2021/08/10 10:03:21;;;;;;;9.95;6.75;;;21.50;99.90;;;;;;5037602;28;20225;-59
2021/08/10 10:05:53;;;;;;;19.00;16.88;;;22.10;99.90;;;;;;5074327;28;20412;-58
2021/08/10 10:08:22;;;;;;;21.83;17.73;;;22.90;99.90;;;;;;5073422;28;20127;-57
2021/08/10 10:10:51;;;;;;;12.13;9.10;;;22.40;99.90;;;;;;5052245;28;20516;-57
2021/08/10 10:13:20;;;;;;;15.93;6.82;;;22.10;99.90;;;;;;5076481;28;20048;-57
2021/08/10 10:15:48;;;;;;;12.55;8.30;;;21.90;99.90;;;;;;5088333;28;20044;-57
2021/08/10 10:18:14;;;;;;;14.90;8.93;;;21.70;99.90;;;;;;5089464;28;20036;-57
2021/08/10 10:20:46;;;;;;;12.85;8.93;;;21.80;99.90;;;;;;5075060;28;20040;-57
2021/08/10 10:23:25;;;;;;;8.18;5.40;;;22.30;99.90;;;;;;5093184;28;20078;-58
2021/08/10 10:25:53;;;;;;;15.75;8.23;;;23.00;99.90;;;;;;5076749;28;20123;-57
2021/08/10 10:28:21;;;;;;;12.65;7.00;;;23.00;99.90;;;;;;5088737;28;20432;-57
2021/08/10 10:30:49;;;;;;;9.13;6.00;;;23.70;99.90;;;;;;5087785;28;20048;-58
2021/08/10 10:33:16;;;;;;;10.80;7.25;;;23.40;98.30;;;;;;5068586;28;20076;-57
2021/08/10 10:35:44;;;;;;;10.00;6.00;;;23.70;99.90;;;;;;5070210;28;20128;-58
2021/08/10 10:38:11;;;;;;;9.70;5.72;;;23.60;99.90;;;;;;5074451;28;20048;-58
2021/08/10 10:40:38;;;;;;;12.35;6.35;;;23.20;99.90;;;;;;5061223;28;20127;-58
2021/08/10 10:43:07;;;;;;;11.52;6.68;;;23.40;99.90;;;;;;5085762;28;20056;-58
2021/08/10 10:45:36;;;;;;;9.60;5.55;;;23.60;99.90;;;;;;5090874;28;20047;-58
2021/08/10 10:48:28;;;;;;;8.30;6.07;;;24.10;99.90;;;;;;5093044;28;20511;-57
2021/08/10 10:51:07;;;;;;;10.38;6.13;;;24.00;94.00;;;;;;5091283;28;20048;-58
2021/08/10 10:53:34;;;;;;;14.35;8.75;;;23.30;94.60;;;;;;5077200;28;20048;-57
2021/08/10 10:56:00;;;;;;;11.57;7.00;;;22.80;96.50;;;;;;5087295;28;20489;-57
2021/08/10 10:58:31;;;;;;;14.18;9.77;;;23.70;96.60;;;;;;5079230;28;20121;-57
2021/08/10 11:01:14;;;;;;;11.85;8.60;;;23.60;94.60;;;;;;5073754;28;20050;-56
2021/08/10 11:04:02;;;;;;;12.85;8.90;;;23.30;92.70;;;;;;5068953;28;20525;-51
2021/08/10 11:06:48;;;;;;;14.15;8.65;;;23.00;96.60;;;;;;5076305;28;20048;-55
2021/08/10 11:09:36;;;;;;;13.80;9.50;;;23.00;96.30;;;;;;5089888;28;20143;-55
2021/08/10 11:12:41;;;;;;;17.20;13.85;;;22.50;95.40;;;;;;5091778;28;20052;-55
2021/08/10 11:15:31;;;;;;;9.20;6.40;;;22.50;96.40;;;;;;5091464;28;20032;-55
2021/08/10 11:18:25;;;;;;;10.25;7.20;;;22.70;96.30;;;;;;5095320;28;20048;-55
2021/08/10 11:20:54;;;;;;;12.38;7.95;;;22.90;99.10;;;;;;5085345;28;20048;-55
2021/08/10 11:23:23;;;;;;;10.48;5.63;;;23.30;94.00;;;;;;5091284;28;20044;-54
2021/08/10 11:26:05;;;;;;;11.40;5.82;;;23.80;95.40;;;;;;5092365;28;20044;-55
2021/08/10 11:28:34;;;;;;;8.60;6.63;;;24.30;93.60;;;;;;5093396;28;20459;-55
2021/08/10 11:31:05;;;;;;;10.90;5.10;;;24.60;82.20;;;;;;5090941;28;20048;-54
2021/08/10 11:36:14;;;;;;;10.98;5.38;;;23.90;83.30;;;;;;5089264;28;20642;-56
2021/08/10 11:38:51;;;;;;;11.43;8.40;;;23.90;88.80;;;;;;5080288;28;20052;-56
2021/08/10 11:41:23;;;;;;;19.55;16.65;;;24.30;86.90;;;;;;5089945;28;20048;-55
2021/08/10 11:43:53;;;;;;;14.20;9.88;;;24.00;89.10;;;;;;5091856;28;20050;-55
2021/08/10 11:46:23;;;;;;;12.20;6.95;;;23.40;91.20;;;;;;5071508;28;20101;-55
2021/08/10 11:48:58;;;;;;;11.32;7.32;;;22.70;92.30;;;;;;5066554;28;20044;-54
2021/08/10 11:51:35;;;;;;;8.93;6.05;;;22.00;94.20;;;;;;5097124;28;20567;-54
2021/08/10 11:54:17;;;;;;;8.52;6.00;;;21.80;98.10;;;;;;5069972;28;20079;-53
2021/08/10 11:56:48;;;;;;;10.55;6.57;;;21.80;99.90;;;;;;5081410;28;20046;-53
2021/08/10 11:59:16;;;;;;;9.63;7.32;;;21.70;99.90;;;;;;5089601;28;20059;-55
2021/08/10 12:01:42;;;;;;;7.95;6.65;;;21.60;99.90;;;;;;5079462;28;20052;-56
2021/08/10 12:04:16;;;;;;;8.93;6.18;;;21.50;99.90;;;;;;5086307;28;20514;-55
2021/08/10 12:06:44;;;;;;;9.07;6.90;;;21.80;99.90;;;;;;5086501;28;20074;-55
2021/08/10 12:09:18;;;;;;;9.77;7.45;;;21.60;99.90;;;;;;5076300;28;20044;-55
2021/08/10 12:11:54;;;;;;;12.80;9.38;;;21.20;99.90;;;;;;5051412;28;20051;-52
2021/08/10 12:14:22;;;;;;;8.23;6.45;;;21.00;99.90;;;;;;5073415;28;20048;-56
2021/08/10 12:17:03;;;;;;;8.50;6.47;;;20.80;99.90;;;;;;5071477;28;20048;-56
2021/08/10 12:19:33;;;;;;;8.95;5.57;;;21.00;99.90;;;;;;5072809;28;20408;-56
2021/08/10 12:22:00;;;;;;;9.43;6.38;;;21.10;99.90;;;;;;5089254;28;20052;-55
2021/08/10 12:24:28;;;;;;;8.60;6.45;;;21.30;99.90;;;;;;5097099;28;20070;-58
2021/08/10 12:26:54;;;;;;;9.73;6.30;;;22.00;99.90;;;;;;5091086;28;20040;-55
2021/08/10 12:29:35;;;;;;;12.05;7.05;;;22.20;99.90;;;;;;5089395;28;20063;-57
2021/08/10 12:32:01;;;;;;;8.82;6.13;;;22.00;99.90;;;;;;5093159;28;20054;-56
2021/08/10 12:34:36;;;;;;;9.77;6.50;;;21.50;99.90;;;;;;5095637;28;20055;-56
2021/08/10 12:37:03;;;;;;;9.15;5.82;;;21.40;99.90;;;;;;5092949;28;20047;-56
2021/08/10 12:39:31;;;;;;;13.32;10.88;;;21.10;99.90;;;;;;5037642;28;20517;-56
2021/08/10 12:41:59;;;;;;;28.05;25.02;;;20.90;99.90;;;;;;5088699;28;20044;-57
2021/08/10 12:44:29;;;;;;;16.52;13.93;;;21.00;99.90;;;;;;5088941;28;20120;-57
2021/08/10 12:47:00;;;;;;;10.20;7.50;;;20.90;99.90;;;;;;5092808;28;20104;-57
2021/08/10 12:49:35;;;;;;;;;;;20.80;99.90;;;;;;5096571;28;20044;-56
2021/08/10 12:52:08;;;;;;;9.10;6.75;;;20.60;99.90;;;;;;5091199;28;19982;-57